sensor_id;sensor_type;location;lat;lon;timestamp;pressure;altitude;pressure_sealevel;temperature;humidity
61740;BME280;47645;45.288;12.038;2024-02-21T00:04:47;1025.247366785727;;;8.1794921875;100
61740;BME280;47645;45.288;12.038;2024-02-21T00:14:48;1025.1474683235256;;;8.449609375;100
61740;BME280;47645;45.288;12.038;2024-02-21T00:24:49;1025.0237190029297;;;8.255859375;100
61740;BME280;47645;45.288;12.038;2024-02-21T00:34:49;1025.0779765597824;;;8.6076171875;100
61740;BME280;47645;45.288;12.038;2024-02-21T00:44:50;1024.9998791970568;;;8.475;100
61740;BME280;47645;45.288;12.038;2024-02-21T00:54:50;1024.8866926831188;;;8.362890625;100
61740;BME280;47645;45.288;12.038;2024-02-21T01:04:51;1024.8671626779915;;;8.373046875;100
61740;BME280;47645;45.288;12.038;2024-02-21T01:14:51;1024.8413512570844;;;8.546484375;100
61740;BME280;47645;45.288;12.038;2024-02-21T01:24:52;1024.655058405198;;;8.449609375;100
61740;BME280;47645;45.288;12.038;2024-02-21T01:34:52;1024.5815341114644;;;8.373046875;100
61740;BME280;47645;45.288;12.038;2024-02-21T01:44:53;1024.5490280958684;;;8.266015625;100
61740;BME280;47645;45.288;12.038;2024-02-21T01:54:54;1024.518587968272;;;8.138671875;100
61740;BME280;47645;45.288;12.038;2024-02-21T02:04:54;1024.5402036581445;;;7.93984375;100
61740;BME280;47645;45.288;12.038;2024-02-21T02:14:58;1024.7293287880002;;;7.4201171875;100
61740;BME280;47645;45.288;12.038;2024-02-21T02:24:55;1024.7933540090928;;;7.1142578125;100
61740;BME280;47645;45.288;12.038;2024-02-21T02:34:57;1024.7717000387793;;;7.3283203125;100
61740;BME280;47645;45.288;12.038;2024-02-21T02:44:57;1024.6981676445994;;;7.3283203125;100
61740;BME280;47645;45.288;12.038;2024-02-21T02:54:56;1024.67592761424;;;7.690234375;100
61740;BME280;47645;45.288;12.038;2024-02-21T03:04:57;1024.6306308691514;;;7.61875;100
61740;BME280;47645;45.288;12.038;2024-02-21T03:14:57;1024.6178256383168;;;7.4251953125;100
61740;BME280;47645;45.288;12.038;2024-02-21T03:24:58;1024.615239105543;;;7.246875;100
61740;BME280;47645;45.288;12.038;2024-02-21T03:34:58;1024.5726855410983;;;7.35390625;100
61740;BME280;47645;45.288;12.038;2024-02-21T03:45:00;1024.5559544820103;;;7.573046875;100
61740;BME280;47645;45.288;12.038;2024-02-21T03:55:00;1024.630429228519;;;7.4607421875;100
61740;BME280;47645;45.288;12.038;2024-02-21T04:05:00;1024.726247773728;;;7.292578125;100
61740;BME280;47645;45.288;12.038;2024-02-21T04:15:00;1024.835212358925;;;7.4302734375;100
61740;BME280;47645;45.288;12.038;2024-02-21T04:25:01;1024.7625277486804;;;6.9869140625;100
61740;BME280;47645;45.288;12.038;2024-02-21T04:35:02;1024.7047110289;;;7.1142578125;100
61740;BME280;47645;45.288;12.038;2024-02-21T04:45:02;1024.6450127327162;;;6.930859375;100
61740;BME280;47645;45.288;12.038;2024-02-21T04:55:03;1024.7147149570803;;;6.844140625;100
61740;BME280;47645;45.288;12.038;2024-02-21T05:05:03;1024.853244547983;;;6.4314453125;100
61740;BME280;47645;45.288;12.038;2024-02-21T05:15:05;1024.919493353629;;;6.51796875;100
61740;BME280;47645;45.288;12.038;2024-02-21T05:25:05;1024.881211488576;;;6.6912109375;100
61740;BME280;47645;45.288;12.038;2024-02-21T05:30:05;1024.9285115422683;;;6.6453125;100
61740;BME280;47645;45.288;12.038;2024-02-21T05:40:06;1024.8504390900573;;;6.6810546875;100
61740;BME280;47645;45.288;12.038;2024-02-21T05:50:06;1024.8839316552505;;;6.6708984375;100
61740;BME280;47645;45.288;12.038;2024-02-21T06:00:08;1024.9015709340442;;;6.5841796875;100
61740;BME280;47645;45.288;12.038;2024-02-21T06:10:08;1024.8512844322559;;;6.523046875;100
61740;BME280;47645;45.288;12.038;2024-02-21T06:20:08;1025.0339006298093;;;6.385546875;100
61740;BME280;47645;45.288;12.038;2024-02-21T06:30:08;1025.0485403258122;;;6.533203125;100
61740;BME280;47645;45.288;12.038;2024-02-21T06:40:08;1025.1302492434143;;;6.7779296875;100
61740;BME280;47645;45.288;12.038;2024-02-21T06:50:09;1025.1367587838715;;;7.1041015625;100
61740;BME280;47645;45.288;12.038;2024-02-21T07:00:11;1025.1483676942673;;;7.0888671875;100
61740;BME280;47645;45.288;12.038;2024-02-21T07:10:11;1025.2146656055306;;;7.0734375;100
61740;BME280;47645;45.288;12.038;2024-02-21T07:20:11;1025.2977541490177;;;7.3486328125;100
61740;BME280;47645;45.288;12.038;2024-02-21T07:30:11;1025.337024741971;;;7.6953125;100
61740;BME280;47645;45.288;12.038;2024-02-21T07:40:13;1025.3986515802944;;;7.730859375;100
61740;BME280;47645;45.288;12.038;2024-02-21T07:50:12;1025.4403284283117;;;7.934765625;100
61740;BME280;47645;45.288;12.038;2024-02-21T08:00:20;1025.345760625654;;;8.6228515625;100
61740;BME280;47645;45.288;12.038;2024-02-21T08:10:13;1025.4292952091228;;;9.0408203125;100
61740;BME280;47645;45.288;12.038;2024-02-21T08:20:13;1025.4491037249493;;;9.45859375;100
61740;BME280;47645;45.288;12.038;2024-02-21T08:30:14;1025.5978226036036;;;9.4791015625;100
61740;BME280;47645;45.288;12.038;2024-02-21T08:40:18;1025.640811277116;;;9.9376953125;100
61740;BME280;47645;45.288;12.038;2024-02-21T08:50:15;1025.6132778956462;;;10.2638671875;99.55819374074902
61740;BME280;47645;45.288;12.038;2024-02-21T09:00:16;1025.6422267538228;;;10.3759765625;96.06647146526166
61740;BME280;47645;45.288;12.038;2024-02-21T09:10:16;1025.4623147187515;;;10.9111328125;96.24181047800408
61740;BME280;47645;45.288;12.038;2024-02-21T09:20:17;1025.4248139346396;;;11.2986328125;92.07580161685651
61740;BME280;47645;45.288;12.038;2024-02-21T09:30:18;1025.4038123157038;;;11.7216796875;87.9676790078315
61740;BME280;47645;45.288;12.038;2024-02-21T09:40:18;1025.3110321920178;;;12.343359375;86.0308188813819
61740;BME280;47645;45.288;12.038;2024-02-21T09:50:19;1025.3419930545833;;;12.5931640625;82.88660862446456
61740;BME280;47645;45.288;12.038;2024-02-21T10:00:22;1025.301101110772;;;13.189453125;79.16837505007615
61740;BME280;47645;45.288;12.038;2024-02-21T10:10:22;1025.2740896327691;;;13.8521484375;78.22347238101621
61740;BME280;47645;45.288;12.038;2024-02-21T10:20:21;1025.2347030954825;;;14.2904296875;74.69934335629902
61740;BME280;47645;45.288;12.038;2024-02-21T10:30:22;1025.2051106818242;;;14.78984375;76.96741526487949
61740;BME280;47645;45.288;12.038;2024-02-21T10:40:24;1024.9975589698454;;;15.21796875;74.51710103734709
61740;BME280;47645;45.288;12.038;2024-02-21T10:50:25;1024.9474471648437;;;15.9111328125;74.71971318165522
61740;BME280;47645;45.288;12.038;2024-02-21T11:00:31;1024.8922845782604;;;16.145703125;67.88140011681709
61740;BME280;47645;45.288;12.038;2024-02-21T11:10:26;1024.7003621110985;;;16.767578125;71.04978219887423
61740;BME280;47645;45.288;12.038;2024-02-21T11:20:32;1024.6070167188598;;;16.9408203125;67.74639830942353
61740;BME280;47645;45.288;12.038;2024-02-21T11:30:27;1024.2798052039825;;;17.3435546875;70.82531875142556
61740;BME280;47645;45.288;12.038;2024-02-21T11:40:28;1024.147789231077;;;18.0826171875;61.35091706787757
61740;BME280;47645;45.288;12.038;2024-02-21T11:50:29;1024.0429692613134;;;17.858203125;65.1715514563357
61740;BME280;47645;45.288;12.038;2024-02-21T12:00:30;1023.8489954693491;;;17.654296875;60.926302508755484
61740;BME280;47645;45.288;12.038;2024-02-21T12:10:30;1023.632146805449;;;18.1029296875;64.56293542817276
61740;BME280;47645;45.288;12.038;2024-02-21T12:20:32;1023.5051310324519;;;18.046875;59.80999153102487
61740;BME280;47645;45.288;12.038;2024-02-21T12:30:34;1023.3865828613858;;;18.8166015625;73.93847944972612
61740;BME280;47645;45.288;12.038;2024-02-21T12:40:34;1023.3253310013362;;;19.33125;59.641220447656025
61740;BME280;47645;45.288;12.038;2024-02-21T12:50:34;1023.1729889214195;;;19.433203125;61.81488825413653
61740;BME280;47645;45.288;12.038;2024-02-21T13:00:36;1022.9033490954574;;;19.85625;62.850807528842665
61740;BME280;47645;45.288;12.038;2024-02-21T13:10:36;1022.6897254286625;;;19.9021484375;73.35341622699323
61740;BME280;47645;45.288;12.038;2024-02-21T13:20:37;1022.5687962851397;;;19.626953125;70.25428289263992
61740;BME280;47645;45.288;12.038;2024-02-21T13:30:38;1022.3752023215338;;;19.499609375;74.38346760434536
61740;BME280;47645;45.288;12.038;2024-02-21T13:40:40;1022.3212824209418;;;19.540234375;69.70905287392442
61740;BME280;47645;45.288;12.038;2024-02-21T13:50:44;1022.16561594024;;;19.4537109375;75.8651103166129
61740;BME280;47645;45.288;12.038;2024-02-21T14:00:42;1022.103217757448;;;19.43828125;65.31993592668766
61740;BME280;47645;45.288;12.038;2024-02-21T14:10:43;1021.8685533299786;;;19.290625;68.77831911851668
61740;BME280;47645;45.288;12.038;2024-02-21T14:20:44;1021.6533650772491;;;19.0662109375;81.44391088340512
61740;BME280;47645;45.288;12.038;2024-02-21T14:30:48;1021.5403474749446;;;18.908203125;78.49167672431764
61740;BME280;47645;45.288;12.038;2024-02-21T14:40:46;1021.4428782485359;;;18.694140625;75.4919071435646
61740;BME280;47645;45.288;12.038;2024-02-21T14:50:47;1021.3421986784015;;;18.3986328125;79.19892867770038
61740;BME280;47645;45.288;12.038;2024-02-21T15:00:48;1021.2299060066342;;;18.2251953125;83.81794282300496
61740;BME280;47645;45.288;12.038;2024-02-21T15:10:51;1021.1873078112149;;;18.05703125;86.0093524265836
61740;BME280;47645;45.288;12.038;2024-02-21T15:20:50;1021.0987457062412;;;17.72578125;84.61802462279952
61740;BME280;47645;45.288;12.038;2024-02-21T15:30:51;1021.0196955853212;;;17.3740234375;85.97184311587876
61740;BME280;47645;45.288;12.038;2024-02-21T15:40:52;1020.9017597003657;;;17.10390625;89.57315100471756
61740;BME280;47645;45.288;12.038;2024-02-21T15:50:53;1020.7921532435637;;;16.9255859375;92.70117246390171
61740;BME280;47645;45.288;12.038;2024-02-21T16:00:54;1020.7726100969118;;;16.5025390625;98.36504445531351
61740;BME280;47645;45.288;12.038;2024-02-21T16:10:57;1020.8203192329273;;;16.069140625;89.92097945558606
61740;BME280;47645;45.288;12.038;2024-02-21T16:20:56;1020.7833409791714;;;15.6359375;100
61740;BME280;47645;45.288;12.038;2024-02-21T16:30:58;1020.831306867977;;;15.51875;100
61740;BME280;47645;45.288;12.038;2024-02-21T16:40:57;1020.8231421434558;;;14.9427734375;100
61740;BME280;47645;45.288;12.038;2024-02-21T16:50:58;1020.8127017524791;;;14.5044921875;100
61740;BME280;47645;45.288;12.038;2024-02-21T17:01:00;1020.8896284241971;;;14.1884765625;100
61740;BME280;47645;45.288;12.038;2024-02-21T17:10:59;1020.9268296434925;;;13.91328125;100
61740;BME280;47645;45.288;12.038;2024-02-21T17:21:00;1021.0618020667197;;;13.6685546875;100
61740;BME280;47645;45.288;12.038;2024-02-21T17:31:01;1021.109460356192;;;13.3220703125;100
61740;BME280;47645;45.288;12.038;2024-02-21T17:41:02;1021.1198363205135;;;13.062109375;100
61740;BME280;47645;45.288;12.038;2024-02-21T17:51:03;1021.0272365794799;;;12.848046875;100
61740;BME280;47645;45.288;12.038;2024-02-21T18:01:03;1020.9288793394978;;;12.5779296875;100
61740;BME280;47645;45.288;12.038;2024-02-21T18:11:04;1020.8265391320643;;;12.353515625;100
61740;BME280;47645;45.288;12.038;2024-02-21T18:21:05;1020.7989518422925;;;12.2873046875;100
61740;BME280;47645;45.288;12.038;2024-02-21T18:31:06;1020.8134125720564;;;12.139453125;100
61740;BME280;47645;45.288;12.038;2024-02-21T18:41:09;1020.7872727052168;;;11.996875;100
61740;BME280;47645;45.288;12.038;2024-02-21T18:51:07;1020.745463213506;;;11.9203125;100
61740;BME280;47645;45.288;12.038;2024-02-21T19:01:07;1020.6391978591022;;;11.70625;100
61740;BME280;47645;45.288;12.038;2024-02-21T19:11:08;1020.6003569121054;;;11.6501953125;100
61740;BME280;47645;45.288;12.038;2024-02-21T19:21:09;1020.5765542520155;;;11.476953125;100
61740;BME280;47645;45.288;12.038;2024-02-21T19:31:10;1020.6317673178564;;;11.1099609375;100
61740;BME280;47645;45.288;12.038;2024-02-21T19:41:10;1020.5885424809157;;;11.1201171875;100
61740;BME280;47645;45.288;12.038;2024-02-21T19:51:11;1020.5263233932778;;;10.9876953125;100
61740;BME280;47645;45.288;12.038;2024-02-21T20:01:13;1020.4364956878836;;;10.7787109375;100
61740;BME280;47645;45.288;12.038;2024-02-21T20:11:14;1020.3428005645761;;;10.6564453125;100
61740;BME280;47645;45.288;12.038;2024-02-21T20:21:13;1020.2472126979949;;;10.513671875;100
61740;BME280;47645;45.288;12.038;2024-02-21T20:31:20;1020.2139617713032;;;10.3046875;100
61740;BME280;47645;45.288;12.038;2024-02-21T20:41:16;1020.1351978873745;;;10.212890625;100
61740;BME280;47645;45.288;12.038;2024-02-21T20:51:15;1019.9918093918833;;;10.1314453125;100
61740;BME280;47645;45.288;12.038;2024-02-21T21:01:15;1019.9718708591987;;;9.953125;100
61740;BME280;47645;45.288;12.038;2024-02-21T21:11:16;1019.9378505058932;;;9.76953125;100
61740;BME280;47645;45.288;12.038;2024-02-21T21:21:17;1019.9073023280051;;;9.667578125;100
61740;BME280;47645;45.288;12.038;2024-02-21T21:31:17;1019.7477888679782;;;9.6064453125;100
61740;BME280;47645;45.288;12.038;2024-02-21T21:41:18;1019.7047649746534;;;9.6166015625;100
61740;BME280;47645;45.288;12.038;2024-02-21T21:51:19;1019.6013317548943;;;9.45859375;100
61740;BME280;47645;45.288;12.038;2024-02-21T22:01:19;1019.5980730588315;;;9.4689453125;100
61740;BME280;47645;45.288;12.038;2024-02-21T22:11:19;1019.5209753617717;;;9.3720703125;100
61740;BME280;47645;45.288;12.038;2024-02-21T22:21:20;1019.4970444157439;;;9.2548828125;100
61740;BME280;47645;45.288;12.038;2024-02-21T22:31:20;1019.4331257999461;;;8.984765625;100
61740;BME280;47645;45.288;12.038;2024-02-21T22:41:22;1019.2571811215306;;;9.132421875;100
61740;BME280;47645;45.288;12.038;2024-02-21T22:51:21;1019.0628745377049;;;9.091796875;100
61740;BME280;47645;45.288;12.038;2024-02-21T23:01:22;1018.9284505342425;;;9.025390625;100
61740;BME280;47645;45.288;12.038;2024-02-21T23:11:23;1018.7922706684631;;;8.6126953125;100
61740;BME280;47645;45.288;12.038;2024-02-21T23:21:23;1018.6503069090409;;;8.571875;100
61740;BME280;47645;45.288;12.038;2024-02-21T23:31:24;1018.5748472828716;;;8.5158203125;100
61740;BME280;47645;45.288;12.038;2024-02-21T23:41:24;1018.4604290950067;;;8.342578125;100
61740;BME280;47645;45.288;12.038;2024-02-21T23:51:25;1018.4807361633099;;;8.3119140625;100
